This is the latest recevied weather packets stored in our database for station/object DK0KTL-4. If no packets are shown the sender has not sent any weather packets the latest 10 day(s).
| Time | Temp. | Humidity | Pressure | Rain* | Wind** | Luminosity | Snow |
|---|---|---|---|---|---|---|---|
| 1777416407 | 3.33° C | 66% | 1024.3 hPa | 0 mm | - | - | - |
| 1777414005 | 3.89° C | 65% | 1024.3 hPa | 0 mm | - | - | - |
| 1777413704 | 3.89° C | 65% | 1024.3 hPa | 0 mm | - | - | - |
| 1777412803 | 3.89° C | 64% | 1024.2 hPa | 0 mm | - | - | - |
| 1777412503 | 4.44° C | 64% | 1024.2 hPa | 0 mm | - | - | - |
| 1777411903 | 4.44° C | 63% | 1024.2 hPa | 0 mm | - | - | - |
| 1777411602 | 4.44° C | 63% | 1024.2 hPa | 0 mm | - | - | - |
| 1777410101 | 5° C | 61% | 1023.9 hPa | 0 mm | - | - | - |
| 1777409500 | 5° C | 60% | 1023.9 hPa | 0 mm | - | - | - |
| 1777409200 | 5° C | 60% | 1023.7 hPa | 0 mm | - | - | - |
| 1777408900 | 5.56° C | 59% | 1023.8 hPa | 0 mm | - | - | - |
| 1777407999 | 5.56° C | 59% | 1023.7 hPa | 0 mm | - | - | - |
| 1777407398 | 6.11° C | 57% | 1023.7 hPa | 0 mm | - | - | - |
| 1777406497 | 6.67° C | 55% | 1023.4 hPa | 0 mm | - | - | - |
| 1777405897 | 7.22° C | 53% | 1023.5 hPa | 0 mm | - | - | - |
| 1777404095 | 8.89° C | 48% | 1023.2 hPa | 0 mm | - | - | - |
| 1777403795 | 8.89° C | 47% | 1023.3 hPa | 0 mm | - | - | - |
| 1777403194 | 9.44° C | 46% | 1023.3 hPa | 0 mm | - | - | - |
| 1777402293 | 10.56° C | 43% | 1023.2 hPa | 0 mm | - | - | - |
| 1777401392 | 11.11° C | 42% | 1023 hPa | 0 mm | - | - | - |
| 1777401092 | 11.67° C | 39% | 1023 hPa | 0 mm | - | - | - |
| 1777400191 | 12.22° C | 39% | 1022.7 hPa | 0 mm | - | - | - |
| 1777398389 | 14.44° C | 35% | 1022.4 hPa | 0 mm | - | - | - |
| 1777398089 | 14.44° C | 34% | 1022.4 hPa | 0 mm | - | - | - |
| 1777396287 | 15.56° C | 34% | 1022.4 hPa | 0 mm | - | - | - |
* Rain latest hour (hover to see other rain measurements)
** Current wind speed in m/s (hover to see current wind gust speed)